Eglin AFB Auxiliary Field Crestview Okaloosa Florida US
ICAO: KEGI
IATA: EGI
Category: Medium
Scheduled Services: No

Elevation: 191 ft
TransAlt. 18000 ft.

Airport Communications:
APP:37.915
APP:125.1
DEP:120.9
GND:25.112
COMD POST:150.6
PTD:139.3
TWR:133.2

KEGI Zoom In..

If you have problems with the map follow the link
https://www.worldairports.se/pages/airport.php?
ICAO=KEGI

Runways:

(A) RW 18 length 8025 ft width 150 ft
ILS 111.70 / hdg 180

(B) RW 36 length 8025 ft width 150 ft
---- / hdg 360

Location; KEGI
Day. 19 / Time. 00.55 Zulu
* Altimeter: 30.24
* Temperature: 21° c. 69.8°f.
* Wind from: 010° Speed 04 kn.
Dewpoint: 16° c.
Visibility: 10 Statute Miles.
Clouds: Few 25000 ft.

KEGI 190055Z 01004KT 10SM FEW250 21/16 A3024 RMK AO2A SLP241 T02070155 $


Wind From 010°
Speed 04 kn.

 
 
jpsmedia.com for Web Design worldairports.se 2018   terms of use